createdAt,value
2022-12-15T00:02:40.532Z,-0.80
2022-12-15T00:06:01.397Z,-2.40
2022-12-15T00:09:25.160Z,-2.50
2022-12-15T00:12:47.970Z,-2.30
2022-12-15T00:16:08.263Z,-2.70
2022-12-15T00:19:28.628Z,-2.50
2022-12-15T00:22:49.238Z,-2.70
2022-12-15T00:26:10.363Z,-1.80
2022-12-15T00:29:31.163Z,-2.70
2022-12-15T00:32:51.793Z,-2.40
2022-12-15T00:36:11.841Z,-2.90
2022-12-15T00:39:13.476Z,-1.70
2022-12-15T00:42:15.034Z,-2.50
2022-12-15T00:45:16.810Z,-3.00
2022-12-15T00:48:18.587Z,-2.10
2022-12-15T00:51:20.420Z,-2.80
2022-12-15T00:54:40.496Z,-1.70
2022-12-15T00:58:01.065Z,-2.80
2022-12-15T01:01:25.232Z,-1.00
2022-12-15T01:04:46.876Z,-2.90
2022-12-15T01:08:07.198Z,-2.80
2022-12-15T01:11:27.614Z,-2.80
2022-12-15T01:14:48.308Z,-2.50
2022-12-15T01:18:08.692Z,-2.80
2022-12-15T01:21:13.092Z,-2.80
2022-12-15T01:24:14.650Z,-2.70
2022-12-15T01:27:16.358Z,-2.70
2022-12-15T01:30:20.814Z,-1.60
2022-12-15T01:33:23.034Z,-2.60
2022-12-15T01:36:24.939Z,-2.20
2022-12-15T01:39:46.512Z,-2.60
2022-12-15T01:42:48.403Z,-1.40
2022-12-15T01:45:51.970Z,-1.60
2022-12-15T01:49:02.908Z,-3.50
2022-12-15T01:52:07.492Z,-2.50
2022-12-15T01:55:10.485Z,-1.10
2022-12-15T01:58:15.822Z,-2.50
2022-12-15T02:01:17.856Z,-2.40
2022-12-15T02:04:22.718Z,-2.60
2022-12-15T02:07:24.703Z,-2.50
2022-12-15T02:10:31.154Z,-2.60
2022-12-15T02:14:00.856Z,-2.40
2022-12-15T02:17:17.835Z,-2.50
2022-12-15T02:20:41.873Z,-2.50
2022-12-15T02:24:19.441Z,-2.50
2022-12-15T02:27:47.940Z,-2.50
2022-12-15T02:31:21.674Z,-2.40
2022-12-15T02:34:43.044Z,-2.30
2022-12-15T02:37:45.373Z,-2.50
2022-12-15T02:40:58.271Z,-2.40
2022-12-15T02:44:02.222Z,-2.40
2022-12-15T02:47:23.663Z,-0.90
2022-12-15T02:50:43.458Z,-2.30
2022-12-15T02:54:11.136Z,-2.30
2022-12-15T02:57:33.079Z,-2.40
2022-12-15T03:00:39.776Z,-2.40
2022-12-15T03:03:43.645Z,-2.30
2022-12-15T03:06:45.352Z,-2.30
2022-12-15T03:09:46.943Z,-0.40
2022-12-15T03:12:50.241Z,-2.50
2022-12-15T03:15:52.789Z,-2.30
2022-12-15T03:18:54.590Z,-2.20
2022-12-15T03:21:56.160Z,-2.60
2022-12-15T03:24:58.052Z,-3.80
2022-12-15T03:27:59.672Z,-2.60
2022-12-15T03:31:01.475Z,-1.80
2022-12-15T03:34:03.089Z,-2.50
2022-12-15T03:37:04.679Z,-2.60
2022-12-15T03:40:07.310Z,-2.40
2022-12-15T03:43:08.919Z,-2.50
2022-12-15T03:46:10.552Z,-1.00
2022-12-15T03:49:12.159Z,-2.10
2022-12-15T03:52:13.747Z,-2.30
2022-12-15T03:55:15.974Z,-2.70
2022-12-15T03:58:17.560Z,-2.50
2022-12-15T04:01:23.698Z,-0.70
2022-12-15T04:04:25.295Z,-1.30
2022-12-15T04:07:26.885Z,-0.70
2022-12-15T04:10:34.235Z,-1.60
2022-12-15T04:13:36.556Z,-2.60
2022-12-15T04:16:38.195Z,-2.00
2022-12-15T04:19:58.394Z,-2.20
2022-12-15T04:23:00.347Z,-1.30
2022-12-15T04:26:26.466Z,-2.50
2022-12-15T04:29:46.767Z,-2.60
2022-12-15T04:33:07.080Z,-2.60
2022-12-15T04:36:28.920Z,-2.70
2022-12-15T04:39:49.436Z,-0.80
2022-12-15T04:43:09.872Z,-1.60
2022-12-15T04:46:30.451Z,-1.80
2022-12-15T04:49:50.517Z,-2.80
2022-12-15T04:53:10.809Z,-2.50
2022-12-15T04:56:32.904Z,-0.70
2022-12-15T04:59:53.396Z,-1.70
2022-12-15T05:03:18.402Z,-1.70
2022-12-15T05:06:39.003Z,-2.60
2022-12-15T05:10:02.961Z,-2.60
2022-12-15T05:13:27.364Z,-2.10
2022-12-15T05:16:47.970Z,-0.80
2022-12-15T05:20:08.364Z,-2.50
2022-12-15T05:23:28.954Z,-2.60
2022-12-15T05:26:53.056Z,-1.50
2022-12-15T05:30:13.843Z,-1.20
2022-12-15T05:33:15.422Z,-1.20
2022-12-15T05:36:16.975Z,-2.60
2022-12-15T05:39:19.132Z,-2.70
2022-12-15T05:42:20.710Z,-1.20
2022-12-15T05:45:22.344Z,-1.50
2022-12-15T05:48:26.910Z,-1.10
2022-12-15T05:51:28.525Z,-2.20
2022-12-15T05:54:30.161Z,-2.70
2022-12-15T05:57:31.805Z,-2.30
2022-12-15T06:00:33.849Z,-0.80
2022-12-15T06:03:36.010Z,-1.00
2022-12-15T06:06:37.589Z,-1.00
2022-12-15T06:09:39.423Z,-1.50
2022-12-15T06:12:41.040Z,-2.60
2022-12-15T06:15:42.696Z,-2.60
2022-12-15T06:18:49.948Z,-1.30
2022-12-15T06:21:51.890Z,-2.00
2022-12-15T06:24:53.541Z,-2.70
2022-12-15T06:28:01.447Z,-1.70
2022-12-15T06:31:05.217Z,-2.70
2022-12-15T06:34:10.360Z,-2.50
2022-12-15T06:37:12.272Z,-2.60
2022-12-15T06:40:13.996Z,-2.30
2022-12-15T06:43:15.568Z,-2.60
2022-12-15T06:46:17.567Z,-2.50
2022-12-15T06:49:19.664Z,-2.80
2022-12-15T06:52:21.299Z,-1.80
2022-12-15T06:55:22.891Z,-1.00
2022-12-15T06:58:25.059Z,-2.70
2022-12-15T07:01:27.453Z,-1.40
2022-12-15T07:04:31.532Z,-0.80
2022-12-15T07:07:33.304Z,-2.80
2022-12-15T07:10:37.782Z,-2.70
2022-12-15T07:13:40.272Z,-2.30
2022-12-15T07:16:41.986Z,-2.70
2022-12-15T07:19:43.703Z,-1.50
2022-12-15T07:22:51.031Z,-2.30
2022-12-15T07:25:52.657Z,-2.00
2022-12-15T07:28:54.600Z,-2.90
2022-12-15T07:31:56.332Z,-1.20
2022-12-15T07:34:58.227Z,-0.80
2022-12-15T07:38:00.232Z,-2.10
2022-12-15T07:41:03.816Z,-2.90
2022-12-15T07:44:06.134Z,-2.80
2022-12-15T07:47:07.765Z,-2.80
2022-12-15T07:50:09.559Z,-2.50
2022-12-15T07:53:11.343Z,-2.70
2022-12-15T07:56:13.010Z,-2.00
2022-12-15T07:59:14.597Z,-1.80
2022-12-15T08:02:16.453Z,-2.80
2022-12-15T08:05:18.177Z,-2.70
2022-12-15T08:08:20.423Z,-2.70
2022-12-15T08:11:23.202Z,-2.80
2022-12-15T08:14:25.290Z,-2.80
2022-12-15T08:17:27.084Z,-2.70
2022-12-15T08:20:30.383Z,-2.50
2022-12-15T08:23:32.829Z,-1.50
2022-12-15T08:26:36.035Z,-1.60
2022-12-15T08:29:53.176Z,-2.60
2022-12-15T08:32:54.919Z,-2.80
2022-12-15T08:36:06.152Z,-2.70
2022-12-15T08:39:07.770Z,-2.80
2022-12-15T08:42:09.382Z,-2.80
2022-12-15T08:45:14.213Z,-2.70
2022-12-15T08:48:15.834Z,-2.70
2022-12-15T08:51:17.583Z,-2.60
2022-12-15T08:54:20.359Z,-2.70
2022-12-15T08:57:21.941Z,-2.60
2022-12-15T09:00:23.876Z,-2.60
2022-12-15T09:03:25.545Z,-2.60
2022-12-15T09:06:30.437Z,-2.50
2022-12-15T09:09:32.060Z,-2.00
2022-12-15T09:12:33.613Z,-2.30
2022-12-15T09:16:07.708Z,-2.10
2022-12-15T09:18:58.645Z,-3.40
2022-12-15T09:22:01.364Z,-1.80
2022-12-15T09:25:06.758Z,-2.10
2022-12-15T09:28:08.398Z,-1.90
2022-12-15T09:31:21.103Z,-0.80
2022-12-15T09:34:22.781Z,-1.90
2022-12-15T09:37:24.379Z,-1.90
2022-12-15T09:40:26.287Z,-1.80
2022-12-15T09:43:38.927Z,-1.90
2022-12-15T09:47:09.846Z,-1.80
2022-12-15T09:50:15.204Z,-1.80
2022-12-15T09:53:52.935Z,-1.80
2022-12-15T09:56:57.839Z,-1.60
2022-12-15T10:00:24.786Z,-1.90
2022-12-15T10:04:11.646Z,-1.90
2022-12-15T10:07:39.480Z,-1.90
2022-12-15T10:10:58.022Z,-1.80
2022-12-15T10:14:30.252Z,-2.00
2022-12-15T10:17:40.646Z,-2.00
2022-12-15T10:20:42.253Z,-1.80
2022-12-15T10:23:43.885Z,-1.90
2022-12-15T10:26:56.248Z,-1.80
2022-12-15T10:30:04.165Z,-1.60
2022-12-15T10:33:19.441Z,-1.20
2022-12-15T10:36:21.042Z,-1.60
2022-12-15T10:39:24.049Z,-1.70
2022-12-15T10:42:27.006Z,-1.60
2022-12-15T10:45:38.997Z,-1.60
2022-12-15T10:48:48.588Z,-1.40
2022-12-15T10:52:00.477Z,-1.40
2022-12-15T10:55:02.222Z,-1.30
2022-12-15T10:58:16.663Z,-1.20
2022-12-15T11:01:24.256Z,-1.10
2022-12-15T11:04:30.653Z,-0.80
2022-12-15T11:07:41.920Z,-1.00
2022-12-15T11:11:13.727Z,-0.90
2022-12-15T11:14:26.810Z,-0.90
2022-12-15T11:17:40.621Z,-0.50
2022-12-15T11:21:04.347Z,-0.70
2022-12-15T11:24:10.948Z,-0.60
2022-12-15T11:27:23.963Z,-0.50
2022-12-15T11:30:33.593Z,-0.60
2022-12-15T11:33:35.592Z,-0.60
2022-12-15T11:36:56.638Z,-0.50
2022-12-15T11:40:11.999Z,-0.40
2022-12-15T11:43:19.387Z,-0.40
2022-12-15T11:46:28.670Z,-0.20
2022-12-15T11:50:07.617Z,-0.60
2022-12-15T11:53:41.623Z,-0.40
2022-12-15T11:56:50.348Z,-0.40
2022-12-15T12:00:15.252Z,-0.30
2022-12-15T12:03:50.649Z,-0.30
2022-12-15T12:07:16.058Z,-0.30
2022-12-15T12:10:36.183Z,-0.20
2022-12-15T12:13:44.546Z,-0.40
2022-12-15T12:17:02.207Z,-0.20
2022-12-15T12:20:14.501Z,-0.20
2022-12-15T12:23:24.027Z,-0.20
2022-12-15T12:26:28.360Z,-0.20
2022-12-15T12:29:37.876Z,-0.20
2022-12-15T12:32:47.290Z,-0.20
2022-12-15T12:36:00.949Z,-0.10
2022-12-15T12:39:03.152Z,-0.40
2022-12-15T12:42:21.282Z,-0.10
2022-12-15T12:45:32.409Z,-0.10
2022-12-15T12:48:41.499Z,-0.10
2022-12-15T12:51:51.616Z,-0.10
2022-12-15T12:55:14.852Z,-0.10
2022-12-15T12:58:32.434Z,-0.10
2022-12-15T13:01:37.791Z,-0.10
2022-12-15T13:04:49.265Z,-0.20
2022-12-15T13:07:57.147Z,-0.20
2022-12-15T13:11:38.655Z,-0.30
2022-12-15T13:14:40.354Z,-0.10
2022-12-15T13:17:48.722Z,-0.20
2022-12-15T13:20:55.215Z,-0.30
2022-12-15T13:23:59.379Z,-0.30
2022-12-15T13:27:08.023Z,-0.20
2022-12-15T13:30:09.550Z,-0.10
2022-12-15T13:33:18.317Z,-0.20
2022-12-15T13:36:38.090Z,1.40
2022-12-15T13:39:55.323Z,-0.20
2022-12-15T13:42:59.191Z,-0.30
2022-12-15T13:46:11.582Z,-0.20
2022-12-15T13:49:49.140Z,-0.20
2022-12-15T13:56:54.968Z,-0.60
2022-12-15T14:00:05.428Z,0.00
2022-12-15T14:03:11.579Z,-0.20
2022-12-15T14:06:15.261Z,-0.10
2022-12-15T14:09:21.738Z,1.30
2022-12-15T14:12:23.975Z,-0.20
2022-12-15T14:15:31.536Z,-0.20
2022-12-15T14:18:35.019Z,-0.20
2022-12-15T14:21:37.515Z,-0.30
2022-12-15T14:24:44.463Z,-0.20
2022-12-15T14:27:50.987Z,-0.40
2022-12-15T14:30:53.187Z,-0.30
2022-12-15T14:34:07.848Z,-0.10
2022-12-15T14:37:18.410Z,-0.50
2022-12-15T14:43:41.931Z,0.60
2022-12-15T14:46:50.241Z,-0.20
2022-12-15T14:49:55.081Z,0.30
2022-12-15T14:53:02.705Z,-0.40
2022-12-15T14:56:29.475Z,1.20
2022-12-15T14:59:34.244Z,-0.20
2022-12-15T15:02:35.992Z,-0.50
2022-12-15T15:03:14.381Z,-0.20
2022-12-15T15:05:40.792Z,1.00
2022-12-15T15:08:47.346Z,1.10
2022-12-15T15:12:49.146Z,-0.60
2022-12-15T15:20:30.179Z,-1.40
2022-12-15T15:24:15.945Z,-1.50
2022-12-15T15:28:08.447Z,-0.70
2022-12-15T15:31:57.252Z,1.10
2022-12-15T15:35:40.758Z,-0.90
2022-12-15T15:38:43.983Z,-2.10
2022-12-15T15:41:45.559Z,-1.30
2022-12-15T15:44:47.341Z,-1.20
2022-12-15T15:47:55.949Z,-1.20
2022-12-15T15:51:00.248Z,-0.20
2022-12-15T15:54:06.203Z,-2.50
2022-12-15T15:57:13.334Z,0.40
2022-12-15T16:00:24.548Z,-1.30
2022-12-15T16:03:26.293Z,-1.30
2022-12-15T16:06:28.168Z,-1.50
2022-12-15T16:09:29.774Z,-1.40
2022-12-15T16:12:39.822Z,-0.60
2022-12-15T16:15:41.830Z,-0.50
2022-12-15T16:18:43.422Z,-1.20
2022-12-15T16:21:45.087Z,-1.20
2022-12-15T16:24:46.963Z,-1.60
2022-12-15T16:27:48.539Z,-0.60
2022-12-15T16:30:50.477Z,-1.60
2022-12-15T16:33:52.130Z,-1.60
2022-12-15T16:36:53.831Z,-0.40
2022-12-15T16:39:55.458Z,-1.60
2022-12-15T16:43:01.803Z,-1.40
2022-12-15T16:46:03.559Z,-1.40
2022-12-15T16:49:05.196Z,-1.50
2022-12-15T16:52:18.377Z,-1.50
2022-12-15T16:55:25.894Z,-1.50
2022-12-15T16:58:28.952Z,-1.40
2022-12-15T17:01:34.146Z,-0.80
2022-12-15T17:04:38.303Z,0.30
2022-12-15T17:07:40.465Z,-1.30
2022-12-15T17:10:45.126Z,-1.60
2022-12-15T17:13:51.030Z,-1.60
2022-12-15T17:16:52.576Z,-0.90
2022-12-15T17:20:27.956Z,-1.30
2022-12-15T17:23:20.445Z,-1.40
2022-12-15T17:26:31.665Z,-1.70
2022-12-15T17:29:33.754Z,-1.60
2022-12-15T17:32:35.303Z,-1.60
2022-12-15T17:35:36.908Z,-1.60
2022-12-15T17:38:39.910Z,-1.60
2022-12-15T17:45:09.935Z,-0.60
2022-12-15T17:48:12.575Z,-1.60
2022-12-15T17:51:20.446Z,-1.70
2022-12-15T17:54:22.242Z,-1.40
2022-12-15T17:57:23.978Z,-1.70
2022-12-15T18:00:30.595Z,-1.30
2022-12-15T18:03:32.853Z,-1.60
2022-12-15T18:06:34.942Z,-1.80
2022-12-15T18:09:38.723Z,0.10
2022-12-15T18:12:40.415Z,-0.30
2022-12-15T18:15:42.598Z,-1.70
2022-12-15T18:18:46.506Z,-1.70
2022-12-15T18:21:50.240Z,-2.00
2022-12-15T18:24:55.458Z,-1.20
2022-12-15T18:28:02.137Z,0.00
2022-12-15T18:31:16.273Z,-1.70
2022-12-15T18:34:21.077Z,-1.60
2022-12-15T18:37:24.588Z,0.10
2022-12-15T18:40:29.517Z,-1.40
2022-12-15T18:43:34.554Z,-1.70
2022-12-15T18:46:36.455Z,-1.80
2022-12-15T18:49:38.054Z,-2.00
2022-12-15T18:52:39.711Z,-0.10
2022-12-15T18:55:41.461Z,-0.80
2022-12-15T18:58:43.087Z,-2.00
2022-12-15T19:01:46.491Z,-2.00
2022-12-15T19:04:54.493Z,-1.20
2022-12-15T19:08:15.158Z,-2.80
2022-12-15T19:11:24.514Z,-2.00
2022-12-15T19:14:41.691Z,-1.70
2022-12-15T19:18:02.005Z,-2.10
2022-12-15T19:21:42.365Z,-2.00
2022-12-15T19:24:56.282Z,-2.10
2022-12-15T19:27:59.689Z,-2.00
2022-12-15T19:31:01.657Z,-2.00
2022-12-15T19:34:03.219Z,-2.00
2022-12-15T19:37:12.170Z,-2.10
2022-12-15T19:40:22.072Z,-1.20
2022-12-15T19:43:25.041Z,-2.10
2022-12-15T19:46:27.392Z,-2.20
2022-12-15T19:49:28.952Z,-2.10
2022-12-15T19:52:31.183Z,-2.20
2022-12-15T19:55:36.241Z,-2.40
2022-12-15T19:58:38.624Z,-2.40
2022-12-15T20:01:40.466Z,-1.30
2022-12-15T20:04:42.071Z,-2.20
2022-12-15T20:07:43.818Z,-2.30
2022-12-15T20:10:46.542Z,-2.20
2022-12-15T20:13:49.169Z,-2.20
2022-12-15T20:16:50.796Z,-1.00
2022-12-15T20:19:52.384Z,-2.30
2022-12-15T20:23:04.559Z,-2.20
2022-12-15T20:26:07.247Z,-2.00
2022-12-15T20:29:22.124Z,-0.90
2022-12-15T20:32:23.803Z,-2.10
2022-12-15T20:35:25.403Z,-3.30
2022-12-15T20:38:33.858Z,-1.90
2022-12-15T20:41:35.593Z,-2.20
2022-12-15T20:44:37.103Z,-2.20
2022-12-15T20:47:45.618Z,-2.20
2022-12-15T20:50:51.033Z,-2.30
2022-12-15T20:53:55.726Z,-1.00
2022-12-15T20:56:57.497Z,-2.30
2022-12-15T20:59:59.412Z,-2.40
2022-12-15T21:03:01.354Z,-2.40
2022-12-15T21:06:03.000Z,-2.40
2022-12-15T21:09:10.832Z,-2.30
2022-12-15T21:12:25.507Z,-1.30
2022-12-15T21:15:27.069Z,-2.20
2022-12-15T21:19:10.808Z,-1.00
2022-12-15T21:21:54.805Z,-2.60
2022-12-15T21:24:58.499Z,-2.50
2022-12-15T21:28:00.209Z,-2.70
2022-12-15T21:31:02.194Z,-2.60
2022-12-15T21:34:03.750Z,-2.70
2022-12-15T21:37:12.394Z,-1.50
2022-12-15T21:40:19.796Z,-2.80
2022-12-15T21:43:23.763Z,-2.40
2022-12-15T21:46:28.520Z,-2.70
2022-12-15T21:49:30.294Z,-1.70
2022-12-15T21:52:31.823Z,-2.80
2022-12-15T21:55:33.487Z,-2.80
2022-12-15T21:58:35.373Z,-2.80
2022-12-15T22:01:37.133Z,-2.90
2022-12-15T22:04:38.777Z,-2.90
2022-12-15T22:07:40.384Z,-2.10
2022-12-15T22:10:43.283Z,-2.90
2022-12-15T22:13:45.358Z,-2.80
2022-12-15T22:16:46.952Z,-2.80
2022-12-15T22:19:48.480Z,-2.90
2022-12-15T22:22:50.355Z,-1.70
2022-12-15T22:25:55.049Z,-2.80
2022-12-15T22:29:00.076Z,-2.50
2022-12-15T22:32:02.129Z,-3.00
2022-12-15T22:35:13.827Z,-2.10
2022-12-15T22:38:16.268Z,-2.90
2022-12-15T22:41:20.922Z,-3.00
2022-12-15T22:44:25.270Z,-1.80
2022-12-15T22:47:27.483Z,-3.00
2022-12-15T22:50:29.264Z,-3.00
2022-12-15T22:53:33.619Z,-3.10
2022-12-15T22:56:39.243Z,-3.00
2022-12-15T22:59:44.627Z,-2.90
2022-12-15T23:02:47.539Z,-2.00
2022-12-15T23:05:49.285Z,-3.10
2022-12-15T23:08:55.857Z,-3.20
2022-12-15T23:11:58.995Z,-3.00
2022-12-15T23:15:23.617Z,-3.00
2022-12-15T23:18:25.253Z,-3.30
2022-12-15T23:21:27.286Z,-3.10
2022-12-15T23:24:31.141Z,-1.80
2022-12-15T23:27:33.603Z,-3.20
2022-12-15T23:30:35.774Z,-3.20
2022-12-15T23:33:39.915Z,-3.30
2022-12-15T23:36:41.610Z,-3.30
2022-12-15T23:39:43.306Z,-3.30
2022-12-15T23:42:44.831Z,-3.30
2022-12-15T23:45:46.590Z,-3.40
2022-12-15T23:48:48.154Z,-3.30
2022-12-15T23:51:49.655Z,-2.90
2022-12-15T23:54:51.150Z,-3.30
2022-12-15T23:57:56.594Z,-3.30
